createdAt,value
2022-08-01T00:01:17.798Z,46.53
2022-08-01T00:03:45.818Z,46.15
2022-08-01T00:06:13.863Z,46.89
2022-08-01T00:08:41.819Z,47.01
2022-08-01T00:11:10.634Z,47.10
2022-08-01T00:13:38.657Z,46.69
2022-08-01T00:16:08.167Z,47.30
2022-08-01T00:18:36.667Z,47.19
2022-08-01T00:21:04.850Z,47.75
2022-08-01T00:23:32.925Z,47.73
2022-08-01T00:26:01.139Z,47.86
2022-08-01T00:28:29.117Z,47.79
2022-08-01T00:30:57.226Z,47.64
2022-08-01T00:33:26.604Z,47.88
2022-08-01T00:35:54.569Z,47.47
2022-08-01T00:38:22.543Z,47.84
2022-08-01T00:40:50.935Z,47.97
2022-08-01T00:43:18.994Z,48.08
2022-08-01T00:45:47.098Z,47.46
2022-08-01T00:48:15.128Z,47.76
2022-08-01T00:50:44.508Z,47.64
2022-08-01T00:53:18.955Z,47.87
2022-08-01T00:55:48.783Z,47.93
2022-08-01T00:58:17.737Z,48.17
2022-08-01T01:00:53.899Z,48.43
2022-08-01T01:03:43.317Z,48.58
2022-08-01T01:06:29.119Z,48.88
2022-08-01T01:09:14.080Z,48.65
2022-08-01T01:11:49.461Z,48.73
2022-08-01T01:14:25.830Z,49.01
2022-08-01T01:16:55.923Z,48.44
2022-08-01T01:19:30.306Z,48.54
2022-08-01T01:22:20.178Z,48.67
2022-08-01T01:25:20.311Z,48.34
2022-08-01T01:27:59.372Z,49.07
2022-08-01T01:30:32.568Z,48.50
2022-08-01T01:33:05.698Z,48.98
2022-08-01T01:35:36.409Z,49.15
2022-08-01T01:38:11.114Z,48.82
2022-08-01T01:40:40.336Z,48.72
2022-08-01T01:43:12.217Z,49.01
2022-08-01T01:45:43.181Z,49.42
2022-08-01T01:48:12.471Z,48.90
2022-08-01T01:50:42.354Z,48.95
2022-08-01T01:53:15.060Z,48.93
2022-08-01T01:55:49.717Z,49.36
2022-08-01T01:58:20.684Z,48.99
2022-08-01T02:00:52.996Z,49.40
2022-08-01T02:03:22.968Z,49.56
2022-08-01T02:05:53.197Z,49.10
2022-08-01T02:08:24.255Z,49.19
2022-08-01T02:11:07.953Z,49.25
2022-08-01T02:13:38.429Z,49.36
2022-08-01T02:16:09.259Z,49.26
2022-08-01T02:18:37.509Z,49.21
2022-08-01T02:21:07.610Z,49.60
2022-08-01T02:23:38.327Z,49.43
2022-08-01T02:26:11.840Z,49.63
2022-08-01T02:28:47.803Z,49.46
2022-08-01T02:31:21.257Z,50.58
2022-08-01T02:33:56.354Z,50.12
2022-08-01T02:36:32.313Z,50.43
2022-08-01T02:39:03.939Z,50.39
2022-08-01T02:41:35.552Z,50.40
2022-08-01T02:44:07.262Z,50.68
2022-08-01T02:46:40.702Z,50.92
2022-08-01T02:49:11.170Z,50.57
2022-08-01T02:51:41.380Z,50.69
2022-08-01T02:54:12.324Z,50.69
2022-08-01T02:56:41.864Z,51.14
2022-08-01T02:59:14.394Z,51.12
2022-08-01T03:01:46.037Z,50.93
2022-08-01T03:04:14.757Z,51.01
2022-08-01T03:06:45.268Z,50.79
2022-08-01T03:09:16.747Z,51.43
2022-08-01T03:11:46.425Z,51.63
2022-08-01T03:14:16.342Z,51.51
2022-08-01T03:16:48.266Z,51.61
2022-08-01T03:19:20.302Z,51.71
2022-08-01T03:21:50.397Z,51.96
2022-08-01T03:24:20.589Z,51.68
2022-08-01T03:26:49.587Z,51.73
2022-08-01T03:29:21.101Z,52.12
2022-08-01T03:31:51.584Z,51.95
2022-08-01T03:34:22.314Z,52.25
2022-08-01T03:36:55.355Z,52.02
2022-08-01T03:39:27.339Z,52.47
2022-08-01T03:42:00.044Z,52.21
2022-08-01T03:44:32.620Z,52.32
2022-08-01T03:47:04.392Z,52.24
2022-08-01T03:49:34.944Z,51.87
2022-08-01T03:52:06.398Z,52.23
2022-08-01T03:54:38.207Z,52.35
2022-08-01T03:57:07.660Z,52.08
2022-08-01T03:59:39.336Z,52.23
2022-08-01T04:02:09.417Z,52.26
2022-08-01T04:04:37.693Z,52.50
2022-08-01T04:07:07.798Z,52.33
2022-08-01T04:09:35.991Z,52.61
2022-08-01T04:12:12.234Z,52.36
2022-08-01T04:14:40.653Z,52.37
2022-08-01T04:17:09.980Z,52.41
2022-08-01T04:19:37.941Z,52.38
2022-08-01T04:22:07.358Z,52.52
2022-08-01T04:24:38.323Z,52.65
2022-08-01T04:27:11.716Z,52.88
2022-08-01T04:29:41.408Z,52.63
2022-08-01T04:32:14.799Z,52.78
2022-08-01T04:34:47.155Z,52.62
2022-08-01T04:37:18.449Z,52.82
2022-08-01T04:39:50.446Z,53.13
2022-08-01T04:42:26.071Z,53.24
2022-08-01T04:44:59.177Z,52.94
2022-08-01T04:47:29.377Z,52.94
2022-08-01T04:49:58.082Z,52.76
2022-08-01T04:52:35.060Z,53.06
2022-08-01T04:55:03.002Z,53.08
2022-08-01T04:57:31.784Z,53.31
2022-08-01T04:59:59.715Z,53.43
2022-08-01T05:02:30.093Z,53.21
2022-08-01T05:04:58.026Z,53.29
2022-08-01T05:07:26.103Z,53.58
2022-08-01T05:09:54.140Z,53.68
2022-08-01T05:12:22.437Z,53.96
2022-08-01T05:14:50.349Z,53.67
2022-08-01T05:17:18.369Z,53.77
2022-08-01T05:19:48.001Z,53.96
2022-08-01T05:22:16.027Z,54.18
2022-08-01T05:24:44.384Z,53.86
2022-08-01T05:27:16.343Z,54.21
2022-08-01T05:29:45.006Z,53.70
2022-08-01T05:32:13.332Z,53.70
2022-08-01T05:34:41.478Z,53.83
2022-08-01T05:37:11.172Z,53.91
2022-08-01T05:39:39.133Z,54.04
2022-08-01T05:42:07.749Z,54.58
2022-08-01T05:44:35.986Z,54.96
2022-08-01T05:47:04.802Z,54.67
2022-08-01T05:49:32.827Z,54.60
2022-08-01T05:52:02.130Z,55.15
2022-08-01T05:54:31.643Z,54.76
2022-08-01T05:57:02.576Z,54.89
2022-08-01T05:59:30.743Z,54.82
2022-08-01T06:01:59.334Z,54.96
2022-08-01T06:04:27.541Z,54.72
2022-08-01T06:06:55.614Z,54.36
2022-08-01T06:09:23.597Z,54.41
2022-08-01T06:11:53.010Z,54.39
2022-08-01T06:14:20.957Z,54.34
2022-08-01T06:16:48.923Z,53.54
2022-08-01T06:19:17.148Z,53.57
2022-08-01T06:21:45.149Z,53.91
2022-08-01T06:24:13.304Z,54.15
2022-08-01T06:26:41.344Z,53.68
2022-08-01T06:29:10.768Z,54.15
2022-08-01T06:31:40.357Z,54.43
2022-08-01T06:34:08.315Z,53.83
2022-08-01T06:36:36.305Z,54.02
2022-08-01T06:39:04.328Z,54.10
2022-08-01T06:41:32.296Z,53.40
2022-08-01T06:44:03.240Z,52.53
2022-08-01T06:46:32.879Z,52.24
2022-08-01T06:49:03.064Z,51.59
2022-08-01T06:51:31.167Z,50.88
2022-08-01T06:53:59.199Z,50.75
2022-08-01T06:56:27.180Z,49.98
2022-08-01T06:58:57.325Z,50.28
2022-08-01T07:01:25.367Z,49.35
2022-08-01T07:03:55.140Z,50.08
2022-08-01T07:06:24.551Z,49.42
2022-08-01T07:08:53.076Z,48.83
2022-08-01T07:11:21.149Z,48.69
2022-08-01T07:13:49.210Z,48.77
2022-08-01T07:16:18.180Z,48.55
2022-08-01T07:18:46.187Z,48.44
2022-08-01T07:21:38.190Z,48.16
2022-08-01T07:24:12.649Z,48.18
2022-08-01T07:26:54.444Z,48.14
2022-08-01T07:29:24.457Z,47.65
2022-08-01T07:31:52.575Z,47.53
2022-08-01T07:34:20.527Z,47.31
2022-08-01T07:36:50.082Z,47.07
2022-08-01T07:39:18.124Z,46.78
2022-08-01T07:42:05.416Z,47.67
2022-08-01T07:44:34.135Z,47.19
2022-08-01T07:47:02.170Z,47.73
2022-08-01T07:49:30.563Z,47.25
2022-08-01T07:52:02.733Z,46.75
2022-08-01T07:54:33.430Z,47.02
2022-08-01T07:57:02.327Z,46.79
2022-08-01T07:59:30.353Z,46.45
2022-08-01T08:01:58.466Z,46.13
2022-08-01T08:04:26.610Z,46.31
2022-08-01T08:06:54.909Z,46.36
2022-08-01T08:09:24.366Z,46.39
2022-08-01T08:11:52.617Z,45.91
2022-08-01T08:14:23.719Z,46.15
2022-08-01T08:17:02.041Z,46.71
2022-08-01T08:19:38.392Z,46.46
2022-08-01T08:22:07.949Z,46.03
2022-08-01T08:24:45.441Z,46.13
2022-08-01T08:27:14.859Z,46.31
2022-08-01T08:29:42.963Z,46.49
2022-08-01T08:32:11.333Z,46.17
2022-08-01T08:34:39.475Z,46.11
2022-08-01T08:37:08.335Z,45.92
2022-08-01T08:39:41.523Z,45.73
2022-08-01T08:42:11.749Z,45.15
2022-08-01T08:44:43.573Z,45.33
2022-08-01T08:47:19.673Z,44.74
2022-08-01T08:49:49.823Z,45.04
2022-08-01T08:52:19.464Z,44.50
2022-08-01T08:54:50.439Z,44.08
2022-08-01T08:57:21.069Z,43.81
2022-08-01T08:59:52.738Z,43.76
2022-08-01T09:02:20.772Z,43.62
2022-08-01T09:04:50.101Z,42.30
2022-08-01T09:07:18.215Z,42.21
2022-08-01T09:09:46.152Z,42.65
2022-08-01T09:12:20.534Z,42.65
2022-08-01T09:14:51.143Z,42.87
2022-08-01T09:17:19.552Z,41.98
2022-08-01T09:19:49.151Z,41.58
2022-08-01T09:22:22.270Z,41.27
2022-08-01T09:25:00.709Z,41.35
2022-08-01T09:27:30.551Z,40.54
2022-08-01T09:30:11.687Z,40.86
2022-08-01T09:32:55.389Z,40.93
2022-08-01T09:35:30.114Z,40.38
2022-08-01T09:38:16.880Z,39.84
2022-08-01T09:40:52.889Z,39.89
2022-08-01T09:43:27.325Z,39.41
2022-08-01T09:45:55.520Z,39.66
2022-08-01T09:48:28.482Z,39.07
2022-08-01T09:51:04.206Z,39.12
2022-08-01T09:53:51.112Z,38.94
2022-08-01T09:56:20.264Z,38.74
2022-08-01T09:59:01.701Z,37.64
2022-08-01T10:01:36.058Z,37.58
2022-08-01T10:04:09.889Z,37.47
2022-08-01T10:06:39.159Z,37.89
2022-08-01T10:09:07.198Z,37.26
2022-08-01T10:11:39.200Z,37.58
2022-08-01T10:14:09.464Z,38.23
2022-08-01T10:16:38.812Z,36.99
2022-08-01T10:19:11.111Z,37.47
2022-08-01T10:21:56.153Z,36.98
2022-08-01T10:24:29.776Z,36.59
2022-08-01T10:27:09.252Z,36.66
2022-08-01T10:30:05.350Z,35.84
2022-08-01T10:32:39.474Z,35.77
2022-08-01T10:35:15.073Z,35.86
2022-08-01T10:37:52.453Z,35.49
2022-08-01T10:40:36.582Z,35.49
2022-08-01T10:43:05.398Z,35.56
2022-08-01T10:45:35.746Z,34.71
2022-08-01T10:48:08.204Z,34.47
2022-08-01T10:50:44.287Z,34.60
2022-08-01T10:53:23.375Z,34.79
2022-08-01T10:56:03.690Z,33.63
2022-08-01T10:58:39.792Z,33.58
2022-08-01T11:01:23.863Z,34.17
2022-08-01T11:04:15.755Z,33.64
2022-08-01T11:07:06.851Z,32.99
2022-08-01T11:09:51.502Z,31.56
2022-08-01T11:12:24.497Z,31.62
2022-08-01T11:15:50.465Z,31.04
2022-08-01T11:18:37.805Z,30.60
2022-08-01T11:21:57.457Z,31.82
2022-08-01T11:23:54.546Z,32.21
2022-08-01T11:26:29.012Z,31.69
2022-08-01T11:29:21.712Z,30.59
2022-08-01T11:31:51.136Z,31.54
2022-08-01T11:34:20.700Z,31.47
2022-08-01T11:36:59.244Z,31.14
2022-08-01T11:39:29.622Z,30.58
2022-08-01T11:42:20.951Z,28.82
2022-08-01T11:44:52.858Z,29.64
2022-08-01T11:47:40.886Z,30.30
2022-08-01T11:50:33.858Z,29.00
2022-08-01T11:53:02.521Z,29.43
2022-08-01T11:55:32.114Z,29.18
2022-08-01T11:58:04.618Z,29.30
2022-08-01T12:00:32.669Z,28.88
2022-08-01T12:03:04.512Z,29.21
2022-08-01T12:05:37.847Z,28.48
2022-08-01T12:08:11.360Z,28.83
2022-08-01T12:10:46.978Z,28.06
2022-08-01T12:13:15.447Z,28.34
2022-08-01T12:15:44.437Z,28.02
2022-08-01T12:18:12.647Z,28.02
2022-08-01T12:20:56.189Z,27.61
2022-08-01T12:23:24.799Z,27.60
2022-08-01T12:25:54.125Z,27.51
2022-08-01T12:28:22.117Z,26.08
2022-08-01T12:30:51.269Z,26.58
2022-08-01T12:33:20.664Z,26.23
2022-08-01T12:35:50.585Z,25.15
2022-08-01T12:38:23.092Z,26.00
2022-08-01T12:40:52.864Z,25.81
2022-08-01T12:43:28.207Z,25.83
2022-08-01T12:45:58.526Z,25.53
2022-08-01T12:48:27.601Z,24.76
2022-08-01T12:51:01.418Z,24.15
2022-08-01T12:53:40.682Z,24.74
2022-08-01T12:56:10.500Z,24.20
2022-08-01T12:58:38.546Z,23.49
2022-08-01T13:01:08.050Z,23.65
2022-08-01T13:03:36.419Z,23.94
2022-08-01T13:06:13.503Z,24.29
2022-08-01T13:08:41.691Z,24.21
2022-08-01T13:11:14.809Z,25.88
2022-08-01T13:13:44.419Z,25.25
2022-08-01T13:16:27.856Z,25.89
2022-08-01T13:19:01.735Z,25.82
2022-08-01T13:21:53.265Z,25.16
2022-08-01T13:24:26.722Z,25.25
2022-08-01T13:26:59.679Z,26.36
2022-08-01T13:29:33.796Z,25.87
2022-08-01T13:32:02.309Z,25.72
2022-08-01T13:34:33.787Z,26.02
2022-08-01T13:37:03.678Z,25.70
2022-08-01T13:39:42.501Z,26.02
2022-08-01T13:42:11.147Z,24.93
2022-08-01T13:44:47.292Z,25.09
2022-08-01T13:47:16.157Z,26.29
2022-08-01T13:49:45.574Z,26.07
2022-08-01T13:52:14.939Z,25.24
2022-08-01T13:54:42.889Z,25.83
2022-08-01T13:57:11.484Z,26.05
2022-08-01T13:59:39.741Z,25.50
2022-08-01T14:02:08.099Z,26.54
2022-08-01T14:04:36.285Z,25.78
2022-08-01T14:07:09.707Z,25.93
2022-08-01T14:09:44.904Z,25.54
2022-08-01T14:12:13.364Z,24.70
2022-08-01T14:14:41.420Z,25.37
2022-08-01T14:17:11.300Z,25.05
2022-08-01T14:19:41.279Z,24.25
2022-08-01T14:22:12.942Z,25.20
2022-08-01T14:24:42.353Z,25.24
2022-08-01T14:27:11.128Z,24.92
2022-08-01T14:29:54.793Z,24.87
2022-08-01T14:32:28.804Z,24.84
2022-08-01T14:34:57.131Z,25.24
2022-08-01T14:37:28.790Z,24.70
2022-08-01T14:40:00.197Z,25.37
2022-08-01T14:42:28.460Z,25.00
2022-08-01T14:44:56.444Z,24.41
2022-08-01T14:47:24.536Z,25.25
2022-08-01T14:49:52.875Z,25.41
2022-08-01T14:52:21.556Z,24.41
2022-08-01T14:54:49.779Z,23.80
2022-08-01T14:57:20.184Z,24.78
2022-08-01T14:59:48.466Z,24.11
2022-08-01T15:02:18.187Z,24.50
2022-08-01T15:04:46.603Z,23.91
2022-08-01T15:07:15.389Z,23.72
2022-08-01T15:09:44.315Z,23.81
2022-08-01T15:12:12.921Z,24.64
2022-08-01T15:14:51.525Z,24.79
2022-08-01T15:17:22.125Z,24.69
2022-08-01T15:19:52.926Z,24.27
2022-08-01T15:22:22.266Z,24.30
2022-08-01T15:24:55.358Z,24.88
2022-08-01T15:27:25.713Z,24.96
2022-08-01T15:29:56.106Z,24.31
2022-08-01T15:32:24.906Z,24.99
2022-08-01T15:34:52.945Z,25.71
2022-08-01T15:37:20.923Z,24.51
2022-08-01T15:39:48.925Z,24.91
2022-08-01T15:42:20.093Z,24.56
2022-08-01T15:44:51.870Z,25.10
2022-08-01T15:47:21.401Z,25.17
2022-08-01T15:49:53.169Z,25.43
2022-08-01T15:52:22.862Z,26.01
2022-08-01T15:54:51.231Z,25.76
2022-08-01T15:57:19.255Z,26.27
2022-08-01T15:59:47.273Z,26.14
2022-08-01T16:02:15.720Z,25.83
2022-08-01T16:04:45.324Z,25.70
2022-08-01T16:07:13.355Z,26.76
2022-08-01T16:09:41.384Z,26.25
2022-08-01T16:12:10.830Z,26.87
2022-08-01T16:14:38.864Z,26.50
2022-08-01T16:17:06.854Z,26.31
2022-08-01T16:19:34.868Z,26.68
2022-08-01T16:22:04.765Z,26.41
2022-08-01T16:24:33.003Z,26.25
2022-08-01T16:27:00.957Z,26.53
2022-08-01T16:29:30.816Z,27.10
2022-08-01T16:32:15.199Z,27.00
2022-08-01T16:34:47.733Z,27.12
2022-08-01T16:37:17.313Z,26.93
2022-08-01T16:39:45.621Z,27.26
2022-08-01T16:42:15.768Z,27.04
2022-08-01T16:44:45.072Z,27.43
2022-08-01T16:47:13.103Z,27.43
2022-08-01T16:49:41.336Z,27.38
2022-08-01T16:52:09.756Z,27.56
2022-08-01T16:54:39.537Z,28.19
2022-08-01T16:57:08.229Z,28.09
2022-08-01T16:59:41.583Z,28.87
2022-08-01T17:02:11.143Z,28.96
2022-08-01T17:04:39.255Z,29.25
2022-08-01T17:07:08.149Z,29.29
2022-08-01T17:09:41.171Z,30.03
2022-08-01T17:12:14.473Z,30.44
2022-08-01T17:14:50.821Z,30.35
2022-08-01T17:17:18.778Z,30.76
2022-08-01T17:19:46.980Z,31.20
2022-08-01T17:22:14.912Z,31.38
2022-08-01T17:24:42.924Z,31.57
2022-08-01T17:27:13.303Z,32.00
2022-08-01T17:29:43.904Z,32.30
2022-08-01T17:32:14.396Z,31.81
2022-08-01T17:34:42.906Z,32.24
2022-08-01T17:37:11.148Z,32.08
2022-08-01T17:39:40.190Z,32.04
2022-08-01T17:42:09.272Z,32.06
2022-08-01T17:44:38.608Z,32.71
2022-08-01T17:47:07.299Z,32.37
2022-08-01T17:52:28.779Z,32.76
2022-08-01T17:54:58.913Z,33.51
2022-08-01T17:57:27.322Z,33.50
2022-08-01T17:59:57.940Z,33.18
2022-08-01T18:02:26.450Z,33.50
2022-08-01T18:04:54.672Z,33.53
2022-08-01T18:08:02.004Z,32.77
2022-08-01T18:10:11.926Z,33.22
2022-08-01T18:12:40.266Z,34.06
2022-08-01T18:15:10.444Z,33.86
2022-08-01T18:17:43.251Z,34.08
2022-08-01T18:20:12.485Z,34.00
2022-08-01T18:22:41.597Z,34.03
2022-08-01T18:25:10.597Z,33.96
2022-08-01T18:28:29.304Z,34.74
2022-08-01T18:30:28.612Z,34.65
2022-08-01T18:32:57.046Z,34.19
2022-08-01T18:35:51.397Z,33.98
2022-08-01T18:38:14.114Z,33.87
2022-08-01T18:40:42.769Z,33.47
2022-08-01T18:43:10.746Z,33.96
2022-08-01T18:45:42.895Z,34.11
2022-08-01T18:48:11.454Z,34.69
2022-08-01T18:50:39.530Z,34.55
2022-08-01T18:53:07.925Z,34.95
2022-08-01T18:55:36.070Z,35.49
2022-08-01T18:58:04.641Z,35.70
2022-08-01T19:00:32.640Z,35.20
2022-08-01T19:03:02.008Z,35.79
2022-08-01T19:05:31.256Z,35.73
2022-08-01T19:08:06.691Z,37.01
2022-08-01T19:10:35.689Z,37.32
2022-08-01T19:13:03.709Z,36.67
2022-08-01T19:15:31.753Z,37.19
2022-08-01T19:18:01.941Z,36.86
2022-08-01T19:20:30.389Z,37.09
2022-08-01T19:22:58.595Z,36.79
2022-08-01T19:25:26.903Z,37.12
2022-08-01T19:27:57.565Z,37.41
2022-08-01T19:30:25.929Z,37.72
2022-08-01T19:32:57.169Z,37.54
2022-08-01T19:35:26.584Z,37.17
2022-08-01T19:37:54.666Z,38.08
2022-08-01T19:40:27.055Z,38.16
2022-08-01T19:42:56.945Z,38.41
2022-08-01T19:45:25.889Z,38.45
2022-08-01T19:47:57.044Z,38.49
2022-08-01T19:50:28.012Z,38.86
2022-08-01T19:52:58.828Z,38.67
2022-08-01T19:55:28.751Z,38.30
2022-08-01T19:58:24.440Z,38.45
2022-08-01T20:00:49.257Z,38.39
2022-08-01T20:03:19.523Z,38.82
2022-08-01T20:05:48.937Z,38.91
2022-08-01T20:08:17.906Z,39.48
2022-08-01T20:10:48.569Z,39.83
2022-08-01T20:13:18.233Z,39.85
2022-08-01T20:15:46.194Z,40.04
2022-08-01T20:18:14.142Z,39.70
2022-08-01T20:20:42.732Z,38.69
2022-08-01T20:23:18.096Z,38.75
2022-08-01T20:25:50.628Z,39.30
2022-08-01T20:28:23.825Z,39.80
2022-08-01T20:30:55.791Z,39.64
2022-08-01T20:33:24.243Z,39.64
2022-08-01T20:35:54.104Z,39.83
2022-08-01T20:38:27.839Z,40.12
2022-08-01T20:40:58.799Z,39.70
2022-08-01T20:43:28.010Z,39.89
2022-08-01T20:45:57.674Z,40.24
2022-08-01T20:48:27.497Z,40.04
2022-08-01T20:51:12.985Z,40.57
2022-08-01T20:53:44.612Z,40.44
2022-08-01T20:56:18.663Z,40.39
2022-08-01T20:58:58.755Z,40.84
2022-08-01T21:01:30.035Z,40.13
2022-08-01T21:04:15.011Z,40.46
2022-08-01T21:06:47.214Z,40.54
2022-08-01T21:09:23.628Z,40.78
2022-08-01T21:11:57.355Z,40.91
2022-08-01T21:14:34.033Z,40.72
2022-08-01T21:17:08.288Z,40.91
2022-08-01T21:19:36.376Z,41.12
2022-08-01T21:22:10.208Z,41.20
2022-08-01T21:24:58.422Z,41.46
2022-08-01T21:27:33.520Z,41.52
2022-08-01T21:30:04.850Z,41.59
2022-08-01T21:32:34.724Z,41.93
2022-08-01T21:35:03.601Z,41.45
2022-08-01T21:37:32.315Z,41.49
2022-08-01T21:40:09.609Z,41.64
2022-08-01T21:42:40.802Z,41.67
2022-08-01T21:45:10.783Z,41.98
2022-08-01T21:47:39.030Z,41.75
2022-08-01T21:50:09.484Z,41.70
2022-08-01T21:52:44.746Z,42.06
2022-08-01T21:55:35.447Z,42.02
2022-08-01T21:58:19.171Z,41.95
2022-08-01T22:00:53.286Z,42.19
2022-08-01T22:03:27.477Z,41.79
2022-08-01T22:05:56.913Z,42.16
2022-08-01T22:08:34.354Z,42.36
2022-08-01T22:11:06.857Z,42.65
2022-08-01T22:13:35.451Z,43.06
2022-08-01T22:16:05.151Z,43.18
2022-08-01T22:18:35.702Z,42.95
2022-08-01T22:21:05.517Z,42.98
2022-08-01T22:23:36.647Z,42.87
2022-08-01T22:26:08.188Z,43.21
2022-08-01T22:28:36.693Z,43.12
2022-08-01T22:31:06.761Z,42.88
2022-08-01T22:33:36.371Z,43.05
2022-08-01T22:36:05.562Z,43.21
2022-08-01T22:38:34.019Z,43.20
2022-08-01T22:41:04.339Z,43.53
2022-08-01T22:43:43.046Z,43.55
2022-08-01T22:46:26.251Z,43.89
2022-08-01T22:49:01.740Z,43.77
2022-08-01T22:51:55.645Z,43.93
2022-08-01T22:54:30.051Z,43.98
2022-08-01T22:57:00.983Z,44.32
2022-08-01T22:59:41.649Z,44.57
2022-08-01T23:02:16.302Z,44.38
2022-08-01T23:04:47.287Z,44.09
2022-08-01T23:07:20.962Z,44.74
2022-08-01T23:09:54.912Z,44.49
2022-08-01T23:12:26.336Z,44.51
2022-08-01T23:14:57.312Z,44.52
2022-08-01T23:17:29.251Z,44.66
2022-08-01T23:20:02.098Z,44.77
2022-08-01T23:22:32.536Z,44.92
2022-08-01T23:25:05.180Z,44.97
2022-08-01T23:28:04.691Z,44.93
2022-08-01T23:30:27.761Z,44.85
2022-08-01T23:32:55.919Z,44.92
2022-08-01T23:35:24.318Z,45.00
2022-08-01T23:37:53.147Z,44.91
2022-08-01T23:40:25.098Z,45.45
2022-08-01T23:42:54.771Z,45.43
2022-08-01T23:45:23.240Z,45.55
2022-08-01T23:47:52.886Z,45.46
2022-08-01T23:50:22.164Z,45.63
2022-08-01T23:52:51.179Z,46.16
2022-08-01T23:55:27.752Z,46.76
2022-08-01T23:58:06.617Z,46.54
